sensor_id;sensor_type;location;lat;lon;timestamp;P1;durP1;ratioP1;P2;durP2;ratioP2
60964;SDS011;46834;51.100;6.886;2023-02-15T00:01:40;21.60;;;13.43;;
60964;SDS011;46834;51.100;6.886;2023-02-15T00:04:08;20.43;;;13.30;;
60964;SDS011;46834;51.100;6.886;2023-02-15T00:06:35;20.57;;;13.40;;
60964;SDS011;46834;51.100;6.886;2023-02-15T00:09:01;24.00;;;14.13;;
60964;SDS011;46834;51.100;6.886;2023-02-15T00:11:28;21.80;;;14.10;;
60964;SDS011;46834;51.100;6.886;2023-02-15T00:14:22;22.67;;;13.83;;
60964;SDS011;46834;51.100;6.886;2023-02-15T00:16:49;22.83;;;14.03;;
60964;SDS011;46834;51.100;6.886;2023-02-15T00:19:17;25.23;;;14.33;;
60964;SDS011;46834;51.100;6.886;2023-02-15T00:21:46;23.07;;;13.73;;
60964;SDS011;46834;51.100;6.886;2023-02-15T00:24:14;29.37;;;13.90;;
60964;SDS011;46834;51.100;6.886;2023-02-15T00:26:42;23.63;;;15.13;;
60964;SDS011;46834;51.100;6.886;2023-02-15T00:29:09;25.23;;;15.27;;
60964;SDS011;46834;51.100;6.886;2023-02-15T00:31:37;22.90;;;13.90;;
60964;SDS011;46834;51.100;6.886;2023-02-15T00:36:31;23.87;;;14.07;;
60964;SDS011;46834;51.100;6.886;2023-02-15T00:38:57;23.73;;;14.37;;
60964;SDS011;46834;51.100;6.886;2023-02-15T00:41:23;22.33;;;13.90;;
60964;SDS011;46834;51.100;6.886;2023-02-15T00:43:49;23.17;;;14.07;;
60964;SDS011;46834;51.100;6.886;2023-02-15T00:46:15;22.93;;;13.80;;
60964;SDS011;46834;51.100;6.886;2023-02-15T00:48:40;25.27;;;15.07;;
60964;SDS011;46834;51.100;6.886;2023-02-15T00:51:06;25.03;;;14.50;;
60964;SDS011;46834;51.100;6.886;2023-02-15T00:53:32;24.10;;;15.00;;
60964;SDS011;46834;51.100;6.886;2023-02-15T00:55:58;26.30;;;15.50;;
60964;SDS011;46834;51.100;6.886;2023-02-15T00:58:24;26.10;;;15.13;;
60964;SDS011;46834;51.100;6.886;2023-02-15T01:00:50;25.07;;;15.37;;
60964;SDS011;46834;51.100;6.886;2023-02-15T01:03:17;25.33;;;15.17;;
60964;SDS011;46834;51.100;6.886;2023-02-15T01:05:44;24.17;;;14.57;;
60964;SDS011;46834;51.100;6.886;2023-02-15T01:08:13;23.37;;;15.00;;
60964;SDS011;46834;51.100;6.886;2023-02-15T01:10:40;24.00;;;14.50;;
60964;SDS011;46834;51.100;6.886;2023-02-15T01:13:06;25.70;;;14.97;;
60964;SDS011;46834;51.100;6.886;2023-02-15T01:15:33;26.97;;;15.33;;
60964;SDS011;46834;51.100;6.886;2023-02-15T01:18:00;26.70;;;15.10;;
60964;SDS011;46834;51.100;6.886;2023-02-15T01:20:27;25.07;;;14.70;;
60964;SDS011;46834;51.100;6.886;2023-02-15T01:22:54;27.77;;;15.30;;
60964;SDS011;46834;51.100;6.886;2023-02-15T01:25:23;24.60;;;14.47;;
60964;SDS011;46834;51.100;6.886;2023-02-15T01:27:49;25.00;;;14.77;;
60964;SDS011;46834;51.100;6.886;2023-02-15T01:30:15;25.70;;;15.17;;
60964;SDS011;46834;51.100;6.886;2023-02-15T01:32:41;26.17;;;15.57;;
60964;SDS011;46834;51.100;6.886;2023-02-15T01:35:08;23.87;;;14.80;;
60964;SDS011;46834;51.100;6.886;2023-02-15T01:37:35;22.80;;;14.17;;
60964;SDS011;46834;51.100;6.886;2023-02-15T01:40:02;25.97;;;14.77;;
60964;SDS011;46834;51.100;6.886;2023-02-15T01:42:31;26.67;;;14.43;;
60964;SDS011;46834;51.100;6.886;2023-02-15T01:44:58;25.13;;;14.33;;
60964;SDS011;46834;51.100;6.886;2023-02-15T01:47:41;23.93;;;14.40;;
60964;SDS011;46834;51.100;6.886;2023-02-15T01:50:28;25.13;;;14.03;;
60964;SDS011;46834;51.100;6.886;2023-02-15T01:55:48;23.10;;;14.23;;
60964;SDS011;46834;51.100;6.886;2023-02-15T01:58:23;24.07;;;13.93;;
60964;SDS011;46834;51.100;6.886;2023-02-15T02:00:54;23.33;;;13.83;;
60964;SDS011;46834;51.100;6.886;2023-02-15T02:06:50;23.30;;;12.87;;
60964;SDS011;46834;51.100;6.886;2023-02-15T02:09:18;21.90;;;13.27;;
60964;SDS011;46834;51.100;6.886;2023-02-15T02:11:44;24.43;;;14.07;;
60964;SDS011;46834;51.100;6.886;2023-02-15T02:14:12;23.13;;;13.90;;
60964;SDS011;46834;51.100;6.886;2023-02-15T02:19:37;23.27;;;13.23;;
60964;SDS011;46834;51.100;6.886;2023-02-15T02:22:53;19.30;;;13.00;;
60964;SDS011;46834;51.100;6.886;2023-02-15T02:38:01;19.13;;;12.20;;
60964;SDS011;46834;51.100;6.886;2023-02-15T02:46:49;18.40;;;11.53;;
60964;SDS011;46834;51.100;6.886;2023-02-15T02:49:39;19.07;;;11.67;;
60964;SDS011;46834;51.100;6.886;2023-02-15T02:55:30;20.10;;;12.73;;
60964;SDS011;46834;51.100;6.886;2023-02-15T02:58:10;20.10;;;12.27;;
60964;SDS011;46834;51.100;6.886;2023-02-15T03:01:08;17.40;;;11.37;;
60964;SDS011;46834;51.100;6.886;2023-02-15T03:03:46;19.33;;;12.33;;
60964;SDS011;46834;51.100;6.886;2023-02-15T03:06:22;19.67;;;12.00;;
60964;SDS011;46834;51.100;6.886;2023-02-15T03:09:01;18.87;;;12.30;;
60964;SDS011;46834;51.100;6.886;2023-02-15T03:11:43;21.23;;;13.63;;
60964;SDS011;46834;51.100;6.886;2023-02-15T03:14:11;20.60;;;12.90;;
60964;SDS011;46834;51.100;6.886;2023-02-15T03:16:39;20.43;;;12.07;;
60964;SDS011;46834;51.100;6.886;2023-02-15T03:19:15;21.10;;;12.93;;
60964;SDS011;46834;51.100;6.886;2023-02-15T03:21:56;21.57;;;12.90;;
60964;SDS011;46834;51.100;6.886;2023-02-15T03:24:35;21.17;;;12.90;;
60964;SDS011;46834;51.100;6.886;2023-02-15T03:27:15;20.07;;;12.30;;
60964;SDS011;46834;51.100;6.886;2023-02-15T03:29:50;20.63;;;12.30;;
60964;SDS011;46834;51.100;6.886;2023-02-15T03:32:21;18.93;;;12.27;;
60964;SDS011;46834;51.100;6.886;2023-02-15T03:34:50;21.13;;;12.60;;
60964;SDS011;46834;51.100;6.886;2023-02-15T03:37:26;21.43;;;13.10;;
60964;SDS011;46834;51.100;6.886;2023-02-15T03:40:22;20.43;;;12.27;;
60964;SDS011;46834;51.100;6.886;2023-02-15T03:46:00;19.43;;;11.77;;
60964;SDS011;46834;51.100;6.886;2023-02-15T03:48:35;18.07;;;11.70;;
60964;SDS011;46834;51.100;6.886;2023-02-15T03:51:08;19.83;;;11.93;;
60964;SDS011;46834;51.100;6.886;2023-02-15T03:54:00;19.07;;;11.70;;
60964;SDS011;46834;51.100;6.886;2023-02-15T03:56:38;18.77;;;12.30;;
60964;SDS011;46834;51.100;6.886;2023-02-15T03:59:27;20.40;;;12.30;;
60964;SDS011;46834;51.100;6.886;2023-02-15T04:02:20;20.47;;;12.27;;
60964;SDS011;46834;51.100;6.886;2023-02-15T04:04:51;20.00;;;12.23;;
60964;SDS011;46834;51.100;6.886;2023-02-15T04:07:17;21.07;;;12.30;;
60964;SDS011;46834;51.100;6.886;2023-02-15T04:09:42;19.10;;;11.63;;
60964;SDS011;46834;51.100;6.886;2023-02-15T04:12:27;19.27;;;11.37;;
60964;SDS011;46834;51.100;6.886;2023-02-15T04:14:52;18.03;;;11.63;;
60964;SDS011;46834;51.100;6.886;2023-02-15T04:17:37;20.10;;;12.50;;
60964;SDS011;46834;51.100;6.886;2023-02-15T04:20:03;18.73;;;11.73;;
60964;SDS011;46834;51.100;6.886;2023-02-15T04:22:48;21.77;;;12.77;;
60964;SDS011;46834;51.100;6.886;2023-02-15T04:25:32;19.27;;;11.43;;
60964;SDS011;46834;51.100;6.886;2023-02-15T04:27:58;20.13;;;12.07;;
60964;SDS011;46834;51.100;6.886;2023-02-15T04:30:24;20.23;;;11.70;;
60964;SDS011;46834;51.100;6.886;2023-02-15T04:32:51;19.20;;;12.07;;
60964;SDS011;46834;51.100;6.886;2023-02-15T04:35:19;17.63;;;11.50;;
60964;SDS011;46834;51.100;6.886;2023-02-15T04:37:45;19.73;;;12.13;;
60964;SDS011;46834;51.100;6.886;2023-02-15T04:40:12;17.80;;;11.17;;
60964;SDS011;46834;51.100;6.886;2023-02-15T04:42:39;20.23;;;12.33;;
60964;SDS011;46834;51.100;6.886;2023-02-15T04:45:05;18.53;;;11.33;;
60964;SDS011;46834;51.100;6.886;2023-02-15T04:47:32;19.50;;;12.53;;
60964;SDS011;46834;51.100;6.886;2023-02-15T04:49:58;19.23;;;12.07;;
60964;SDS011;46834;51.100;6.886;2023-02-15T04:52:24;16.83;;;11.03;;
60964;SDS011;46834;51.100;6.886;2023-02-15T04:54:50;19.23;;;11.80;;
60964;SDS011;46834;51.100;6.886;2023-02-15T04:57:15;18.17;;;11.20;;
60964;SDS011;46834;51.100;6.886;2023-02-15T04:59:41;18.03;;;11.80;;
60964;SDS011;46834;51.100;6.886;2023-02-15T05:02:06;20.57;;;12.63;;
60964;SDS011;46834;51.100;6.886;2023-02-15T05:04:32;17.13;;;11.07;;
60964;SDS011;46834;51.100;6.886;2023-02-15T05:06:58;19.23;;;12.13;;
60964;SDS011;46834;51.100;6.886;2023-02-15T05:09:23;22.37;;;12.47;;
60964;SDS011;46834;51.100;6.886;2023-02-15T05:11:49;20.30;;;12.43;;
60964;SDS011;46834;51.100;6.886;2023-02-15T05:14:15;23.67;;;13.43;;
60964;SDS011;46834;51.100;6.886;2023-02-15T05:16:40;21.03;;;12.37;;
60964;SDS011;46834;51.100;6.886;2023-02-15T05:19:06;20.10;;;12.37;;
60964;SDS011;46834;51.100;6.886;2023-02-15T05:21:32;19.97;;;12.27;;
60964;SDS011;46834;51.100;6.886;2023-02-15T05:23:58;19.87;;;11.73;;
60964;SDS011;46834;51.100;6.886;2023-02-15T05:26:24;19.20;;;11.50;;
60964;SDS011;46834;51.100;6.886;2023-02-15T05:29:09;19.20;;;11.53;;
60964;SDS011;46834;51.100;6.886;2023-02-15T05:31:36;21.60;;;11.57;;
60964;SDS011;46834;51.100;6.886;2023-02-15T05:34:02;21.17;;;11.73;;
60964;SDS011;46834;51.100;6.886;2023-02-15T05:36:28;19.93;;;11.90;;
60964;SDS011;46834;51.100;6.886;2023-02-15T05:38:54;19.77;;;11.20;;
60964;SDS011;46834;51.100;6.886;2023-02-15T05:41:20;23.60;;;12.20;;
60964;SDS011;46834;51.100;6.886;2023-02-15T05:43:46;22.83;;;12.33;;
60964;SDS011;46834;51.100;6.886;2023-02-15T05:46:12;25.50;;;13.50;;
60964;SDS011;46834;51.100;6.886;2023-02-15T05:48:38;24.00;;;13.43;;
60964;SDS011;46834;51.100;6.886;2023-02-15T05:51:10;22.13;;;12.70;;
60964;SDS011;46834;51.100;6.886;2023-02-15T05:53:41;25.37;;;12.23;;
60964;SDS011;46834;51.100;6.886;2023-02-15T05:56:08;23.27;;;13.20;;
60964;SDS011;46834;51.100;6.886;2023-02-15T05:58:36;22.97;;;13.67;;
60964;SDS011;46834;51.100;6.886;2023-02-15T06:01:08;21.87;;;12.57;;
60964;SDS011;46834;51.100;6.886;2023-02-15T06:03:42;20.77;;;12.73;;
60964;SDS011;46834;51.100;6.886;2023-02-15T06:06:10;23.03;;;12.40;;
60964;SDS011;46834;51.100;6.886;2023-02-15T06:08:36;23.20;;;12.37;;
60964;SDS011;46834;51.100;6.886;2023-02-15T06:11:03;23.43;;;13.07;;
60964;SDS011;46834;51.100;6.886;2023-02-15T06:13:30;23.97;;;12.83;;
60964;SDS011;46834;51.100;6.886;2023-02-15T06:15:57;24.23;;;13.30;;
60964;SDS011;46834;51.100;6.886;2023-02-15T06:18:23;21.87;;;12.83;;
60964;SDS011;46834;51.100;6.886;2023-02-15T06:20:49;22.37;;;12.10;;
60964;SDS011;46834;51.100;6.886;2023-02-15T06:23:15;20.50;;;11.97;;
60964;SDS011;46834;51.100;6.886;2023-02-15T06:25:41;20.03;;;11.53;;
60964;SDS011;46834;51.100;6.886;2023-02-15T06:28:07;22.30;;;12.00;;
60964;SDS011;46834;51.100;6.886;2023-02-15T06:30:33;19.07;;;12.03;;
60964;SDS011;46834;51.100;6.886;2023-02-15T06:32:58;19.63;;;11.80;;
60964;SDS011;46834;51.100;6.886;2023-02-15T06:35:24;19.57;;;11.73;;
60964;SDS011;46834;51.100;6.886;2023-02-15T06:37:50;18.53;;;11.40;;
60964;SDS011;46834;51.100;6.886;2023-02-15T06:40:16;17.40;;;11.37;;
60964;SDS011;46834;51.100;6.886;2023-02-15T06:42:42;16.17;;;10.53;;
60964;SDS011;46834;51.100;6.886;2023-02-15T06:45:08;19.23;;;10.93;;
60964;SDS011;46834;51.100;6.886;2023-02-15T06:47:34;17.27;;;10.77;;
60964;SDS011;46834;51.100;6.886;2023-02-15T06:50:00;19.03;;;11.00;;
60964;SDS011;46834;51.100;6.886;2023-02-15T06:52:26;18.87;;;11.30;;
60964;SDS011;46834;51.100;6.886;2023-02-15T06:54:53;18.03;;;10.33;;
60964;SDS011;46834;51.100;6.886;2023-02-15T06:57:18;18.17;;;10.87;;
60964;SDS011;46834;51.100;6.886;2023-02-15T06:59:44;18.27;;;11.20;;
60964;SDS011;46834;51.100;6.886;2023-02-15T07:02:13;16.57;;;11.13;;
60964;SDS011;46834;51.100;6.886;2023-02-15T07:04:39;21.90;;;12.00;;
60964;SDS011;46834;51.100;6.886;2023-02-15T07:07:07;17.30;;;11.20;;
60964;SDS011;46834;51.100;6.886;2023-02-15T07:09:35;17.50;;;10.97;;
60964;SDS011;46834;51.100;6.886;2023-02-15T07:12:01;20.43;;;11.63;;
60964;SDS011;46834;51.100;6.886;2023-02-15T07:14:46;21.60;;;12.10;;
60964;SDS011;46834;51.100;6.886;2023-02-15T07:17:12;17.27;;;10.43;;
60964;SDS011;46834;51.100;6.886;2023-02-15T07:19:37;20.80;;;12.10;;
60964;SDS011;46834;51.100;6.886;2023-02-15T07:22:03;20.20;;;12.07;;
60964;SDS011;46834;51.100;6.886;2023-02-15T07:24:30;19.07;;;11.53;;
60964;SDS011;46834;51.100;6.886;2023-02-15T07:26:56;20.37;;;11.70;;
60964;SDS011;46834;51.100;6.886;2023-02-15T07:29:22;18.57;;;11.47;;
60964;SDS011;46834;51.100;6.886;2023-02-15T07:31:49;17.47;;;10.90;;
60964;SDS011;46834;51.100;6.886;2023-02-15T07:34:15;19.27;;;10.97;;
60964;SDS011;46834;51.100;6.886;2023-02-15T07:36:40;18.77;;;10.77;;
60964;SDS011;46834;51.100;6.886;2023-02-15T07:39:08;19.07;;;11.37;;
60964;SDS011;46834;51.100;6.886;2023-02-15T07:41:34;20.27;;;11.63;;
60964;SDS011;46834;51.100;6.886;2023-02-15T07:44:00;19.47;;;12.23;;
60964;SDS011;46834;51.100;6.886;2023-02-15T07:46:26;19.40;;;11.30;;
60964;SDS011;46834;51.100;6.886;2023-02-15T07:48:52;18.77;;;10.93;;
60964;SDS011;46834;51.100;6.886;2023-02-15T07:51:17;18.57;;;11.43;;
60964;SDS011;46834;51.100;6.886;2023-02-15T07:53:43;19.27;;;11.03;;
60964;SDS011;46834;51.100;6.886;2023-02-15T07:56:10;18.40;;;11.40;;
60964;SDS011;46834;51.100;6.886;2023-02-15T07:58:38;16.97;;;10.77;;
60964;SDS011;46834;51.100;6.886;2023-02-15T08:01:16;19.27;;;11.17;;
60964;SDS011;46834;51.100;6.886;2023-02-15T08:03:48;18.07;;;11.23;;
60964;SDS011;46834;51.100;6.886;2023-02-15T08:06:14;18.93;;;11.37;;
60964;SDS011;46834;51.100;6.886;2023-02-15T08:08:40;17.93;;;11.47;;
60964;SDS011;46834;51.100;6.886;2023-02-15T08:11:14;19.07;;;11.73;;
60964;SDS011;46834;51.100;6.886;2023-02-15T08:14:12;16.93;;;10.73;;
60964;SDS011;46834;51.100;6.886;2023-02-15T08:16:49;18.57;;;10.83;;
60964;SDS011;46834;51.100;6.886;2023-02-15T08:19:21;17.47;;;11.30;;
60964;SDS011;46834;51.100;6.886;2023-02-15T08:21:55;17.77;;;10.77;;
60964;SDS011;46834;51.100;6.886;2023-02-15T08:24:31;20.33;;;11.00;;
60964;SDS011;46834;51.100;6.886;2023-02-15T08:27:04;18.40;;;11.40;;
60964;SDS011;46834;51.100;6.886;2023-02-15T08:29:32;18.77;;;11.87;;
60964;SDS011;46834;51.100;6.886;2023-02-15T08:32:01;17.67;;;11.37;;
60964;SDS011;46834;51.100;6.886;2023-02-15T08:34:31;18.47;;;11.03;;
60964;SDS011;46834;51.100;6.886;2023-02-15T08:37:04;18.27;;;10.80;;
60964;SDS011;46834;51.100;6.886;2023-02-15T08:39:30;17.83;;;10.60;;
60964;SDS011;46834;51.100;6.886;2023-02-15T08:41:56;22.13;;;10.87;;
60964;SDS011;46834;51.100;6.886;2023-02-15T08:44:22;17.37;;;10.57;;
60964;SDS011;46834;51.100;6.886;2023-02-15T08:46:49;15.70;;;10.07;;
60964;SDS011;46834;51.100;6.886;2023-02-15T08:49:16;18.93;;;10.93;;
60964;SDS011;46834;51.100;6.886;2023-02-15T08:51:45;18.97;;;11.23;;
60964;SDS011;46834;51.100;6.886;2023-02-15T08:54:13;18.20;;;10.90;;
60964;SDS011;46834;51.100;6.886;2023-02-15T08:56:44;16.63;;;10.57;;
60964;SDS011;46834;51.100;6.886;2023-02-15T08:59:12;17.90;;;9.87;;
60964;SDS011;46834;51.100;6.886;2023-02-15T09:01:42;15.50;;;9.97;;
60964;SDS011;46834;51.100;6.886;2023-02-15T09:04:09;18.33;;;10.80;;
60964;SDS011;46834;51.100;6.886;2023-02-15T09:06:36;17.20;;;10.17;;
60964;SDS011;46834;51.100;6.886;2023-02-15T09:09:03;17.30;;;10.77;;
60964;SDS011;46834;51.100;6.886;2023-02-15T09:11:30;17.63;;;10.50;;
60964;SDS011;46834;51.100;6.886;2023-02-15T09:14:07;16.17;;;9.93;;
60964;SDS011;46834;51.100;6.886;2023-02-15T09:16:38;15.43;;;9.50;;
60964;SDS011;46834;51.100;6.886;2023-02-15T09:19:05;14.87;;;9.40;;
60964;SDS011;46834;51.100;6.886;2023-02-15T09:21:32;13.33;;;8.53;;
60964;SDS011;46834;51.100;6.886;2023-02-15T09:24:03;14.07;;;9.43;;
60964;SDS011;46834;51.100;6.886;2023-02-15T09:26:33;15.07;;;9.97;;
60964;SDS011;46834;51.100;6.886;2023-02-15T09:29:04;15.23;;;9.33;;
60964;SDS011;46834;51.100;6.886;2023-02-15T09:31:31;15.00;;;9.73;;
60964;SDS011;46834;51.100;6.886;2023-02-15T09:34:12;15.37;;;9.90;;
60964;SDS011;46834;51.100;6.886;2023-02-15T09:36:43;15.50;;;9.00;;
60964;SDS011;46834;51.100;6.886;2023-02-15T09:39:14;16.00;;;9.87;;
60964;SDS011;46834;51.100;6.886;2023-02-15T09:41:49;19.23;;;9.80;;
60964;SDS011;46834;51.100;6.886;2023-02-15T09:53:10;14.63;;;9.77;;
60964;SDS011;46834;51.100;6.886;2023-02-15T09:55:58;14.37;;;9.00;;
60964;SDS011;46834;51.100;6.886;2023-02-15T10:01:45;12.97;;;8.47;;
60964;SDS011;46834;51.100;6.886;2023-02-15T10:21:36;11.40;;;7.73;;
60964;SDS011;46834;51.100;6.886;2023-02-15T10:26:54;16.03;;;9.73;;
60964;SDS011;46834;51.100;6.886;2023-02-15T10:29:37;16.10;;;8.10;;
60964;SDS011;46834;51.100;6.886;2023-02-15T10:32:21;12.90;;;8.27;;
60964;SDS011;46834;51.100;6.886;2023-02-15T10:34:52;14.10;;;8.80;;
60964;SDS011;46834;51.100;6.886;2023-02-15T10:43:37;14.07;;;9.77;;
60964;SDS011;46834;51.100;6.886;2023-02-15T10:49:38;14.67;;;8.07;;
60964;SDS011;46834;51.100;6.886;2023-02-15T10:52:42;10.93;;;7.33;;
60964;SDS011;46834;51.100;6.886;2023-02-15T10:55:29;13.17;;;7.80;;
60964;SDS011;46834;51.100;6.886;2023-02-15T10:58:35;12.30;;;7.50;;
60964;SDS011;46834;51.100;6.886;2023-02-15T11:12:57;13.45;;;8.23;;
60964;SDS011;46834;51.100;6.886;2023-02-15T11:15:34;12.88;;;8.50;;
60964;SDS011;46834;51.100;6.886;2023-02-15T11:18:19;13.25;;;8.43;;
60964;SDS011;46834;51.100;6.886;2023-02-15T11:24:09;12.50;;;6.97;;
60964;SDS011;46834;51.100;6.886;2023-02-15T11:26:49;12.45;;;7.70;;
60964;SDS011;46834;51.100;6.886;2023-02-15T11:29:28;11.20;;;7.38;;
60964;SDS011;46834;51.100;6.886;2023-02-15T11:32:21;10.48;;;7.72;;
60964;SDS011;46834;51.100;6.886;2023-02-15T11:37:51;13.02;;;8.45;;
60964;SDS011;46834;51.100;6.886;2023-02-15T11:40:47;12.70;;;8.02;;
60964;SDS011;46834;51.100;6.886;2023-02-15T11:43:35;12.43;;;7.93;;
60964;SDS011;46834;51.100;6.886;2023-02-15T11:46:02;15.00;;;8.48;;
60964;SDS011;46834;51.100;6.886;2023-02-15T11:48:30;13.77;;;7.93;;
60964;SDS011;46834;51.100;6.886;2023-02-15T11:50:57;12.02;;;7.63;;
60964;SDS011;46834;51.100;6.886;2023-02-15T11:53:32;12.25;;;8.10;;
60964;SDS011;46834;51.100;6.886;2023-02-15T11:56:02;12.98;;;7.57;;
60964;SDS011;46834;51.100;6.886;2023-02-15T11:58:44;15.15;;;7.60;;
60964;SDS011;46834;51.100;6.886;2023-02-15T12:01:44;11.60;;;7.32;;
60964;SDS011;46834;51.100;6.886;2023-02-15T12:07:11;11.05;;;6.95;;
60964;SDS011;46834;51.100;6.886;2023-02-15T12:09:52;10.73;;;7.03;;
60964;SDS011;46834;51.100;6.886;2023-02-15T12:12:32;15.02;;;7.40;;
60964;SDS011;46834;51.100;6.886;2023-02-15T12:15:01;13.55;;;8.10;;
60964;SDS011;46834;51.100;6.886;2023-02-15T12:17:42;11.23;;;7.43;;
60964;SDS011;46834;51.100;6.886;2023-02-15T12:22:52;12.70;;;8.07;;
60964;SDS011;46834;51.100;6.886;2023-02-15T12:27:58;13.73;;;8.40;;
60964;SDS011;46834;51.100;6.886;2023-02-15T12:30:31;14.60;;;7.78;;
60964;SDS011;46834;51.100;6.886;2023-02-15T12:35:37;10.32;;;7.50;;
60964;SDS011;46834;51.100;6.886;2023-02-15T12:38:25;10.38;;;7.28;;
60964;SDS011;46834;51.100;6.886;2023-02-15T12:43:35;10.98;;;7.65;;
60964;SDS011;46834;51.100;6.886;2023-02-15T12:51:44;12.73;;;7.55;;
60964;SDS011;46834;51.100;6.886;2023-02-15T12:54:31;11.98;;;7.10;;
60964;SDS011;46834;51.100;6.886;2023-02-15T12:59:53;12.35;;;8.00;;
60964;SDS011;46834;51.100;6.886;2023-02-15T13:08:02;11.77;;;7.53;;
60964;SDS011;46834;51.100;6.886;2023-02-15T13:10:57;13.82;;;7.80;;
60964;SDS011;46834;51.100;6.886;2023-02-15T13:13:58;12.63;;;7.25;;
60964;SDS011;46834;51.100;6.886;2023-02-15T13:16:29;11.77;;;7.35;;
60964;SDS011;46834;51.100;6.886;2023-02-15T13:19:03;9.27;;;6.60;;
60964;SDS011;46834;51.100;6.886;2023-02-15T13:21:37;10.18;;;6.55;;
60964;SDS011;46834;51.100;6.886;2023-02-15T13:26:48;11.20;;;6.53;;
60964;SDS011;46834;51.100;6.886;2023-02-15T13:29:18;13.15;;;6.95;;
60964;SDS011;46834;51.100;6.886;2023-02-15T13:31:50;14.30;;;7.05;;
60964;SDS011;46834;51.100;6.886;2023-02-15T13:34:20;10.65;;;7.07;;
60964;SDS011;46834;51.100;6.886;2023-02-15T13:37:07;10.80;;;6.50;;
60964;SDS011;46834;51.100;6.886;2023-02-15T14:11:16;10.07;;;6.38;;
60964;SDS011;46834;51.100;6.886;2023-02-15T14:14:08;11.27;;;6.20;;
60964;SDS011;46834;51.100;6.886;2023-02-15T14:19:53;11.95;;;6.93;;
60964;SDS011;46834;51.100;6.886;2023-02-15T14:22:33;8.93;;;6.05;;
60964;SDS011;46834;51.100;6.886;2023-02-15T14:28:16;11.68;;;5.47;;
60964;SDS011;46834;51.100;6.886;2023-02-15T14:31:21;10.93;;;5.97;;
60964;SDS011;46834;51.100;6.886;2023-02-15T14:33:56;11.48;;;6.78;;
60964;SDS011;46834;51.100;6.886;2023-02-15T14:36:22;10.98;;;6.45;;
60964;SDS011;46834;51.100;6.886;2023-02-15T14:38:55;11.32;;;6.47;;
60964;SDS011;46834;51.100;6.886;2023-02-15T14:42:20;10.15;;;5.95;;
60964;SDS011;46834;51.100;6.886;2023-02-15T14:45:05;9.23;;;5.95;;
60964;SDS011;46834;51.100;6.886;2023-02-15T14:47:44;10.88;;;5.95;;
60964;SDS011;46834;51.100;6.886;2023-02-15T14:50:37;10.80;;;6.45;;
60964;SDS011;46834;51.100;6.886;2023-02-15T15:01:57;9.63;;;6.97;;
60964;SDS011;46834;51.100;6.886;2023-02-15T15:04:38;11.00;;;6.47;;
60964;SDS011;46834;51.100;6.886;2023-02-15T15:07:24;12.73;;;6.68;;
60964;SDS011;46834;51.100;6.886;2023-02-15T15:12:44;9.38;;;6.20;;
60964;SDS011;46834;51.100;6.886;2023-02-15T15:17:57;13.05;;;6.78;;
60964;SDS011;46834;51.100;6.886;2023-02-15T15:28:59;11.02;;;6.63;;
60964;SDS011;46834;51.100;6.886;2023-02-15T15:34:25;11.30;;;7.07;;
60964;SDS011;46834;51.100;6.886;2023-02-15T15:37:28;11.50;;;6.78;;
60964;SDS011;46834;51.100;6.886;2023-02-15T15:40:28;13.20;;;7.28;;
60964;SDS011;46834;51.100;6.886;2023-02-15T15:49:12;10.52;;;6.78;;
60964;SDS011;46834;51.100;6.886;2023-02-15T15:51:44;11.43;;;6.40;;
60964;SDS011;46834;51.100;6.886;2023-02-15T15:54:18;10.77;;;6.45;;
60964;SDS011;46834;51.100;6.886;2023-02-15T15:56:49;10.95;;;6.45;;
60964;SDS011;46834;51.100;6.886;2023-02-15T15:59:30;11.80;;;6.80;;
60964;SDS011;46834;51.100;6.886;2023-02-15T16:02:05;14.13;;;6.50;;
60964;SDS011;46834;51.100;6.886;2023-02-15T16:04:38;14.10;;;6.82;;
60964;SDS011;46834;51.100;6.886;2023-02-15T16:09:52;11.88;;;6.88;;
60964;SDS011;46834;51.100;6.886;2023-02-15T16:12:23;8.63;;;5.90;;
60964;SDS011;46834;51.100;6.886;2023-02-15T16:14:53;11.05;;;7.10;;
60964;SDS011;46834;51.100;6.886;2023-02-15T16:17:22;13.38;;;6.75;;
60964;SDS011;46834;51.100;6.886;2023-02-15T16:22:58;12.50;;;6.35;;
60964;SDS011;46834;51.100;6.886;2023-02-15T16:28:24;11.13;;;6.88;;
60964;SDS011;46834;51.100;6.886;2023-02-15T16:33:40;10.32;;;6.63;;
60964;SDS011;46834;51.100;6.886;2023-02-15T16:36:10;11.82;;;7.30;;
60964;SDS011;46834;51.100;6.886;2023-02-15T16:41:23;11.35;;;6.82;;
60964;SDS011;46834;51.100;6.886;2023-02-15T16:43:52;9.32;;;7.00;;
60964;SDS011;46834;51.100;6.886;2023-02-15T16:46:25;9.48;;;6.45;;
60964;SDS011;46834;51.100;6.886;2023-02-15T16:49:02;9.50;;;6.40;;
60964;SDS011;46834;51.100;6.886;2023-02-15T16:51:41;10.60;;;6.95;;
60964;SDS011;46834;51.100;6.886;2023-02-15T16:54:16;10.38;;;6.57;;
60964;SDS011;46834;51.100;6.886;2023-02-15T16:56:46;11.48;;;6.63;;
60964;SDS011;46834;51.100;6.886;2023-02-15T16:59:18;12.20;;;6.55;;
60964;SDS011;46834;51.100;6.886;2023-02-15T17:02:03;11.45;;;6.85;;
60964;SDS011;46834;51.100;6.886;2023-02-15T17:04:40;9.77;;;6.65;;
60964;SDS011;46834;51.100;6.886;2023-02-15T17:07:17;9.45;;;6.82;;
60964;SDS011;46834;51.100;6.886;2023-02-15T17:09:52;10.32;;;6.85;;
60964;SDS011;46834;51.100;6.886;2023-02-15T17:18:29;9.35;;;6.25;;
60964;SDS011;46834;51.100;6.886;2023-02-15T17:21:10;17.50;;;7.22;;
60964;SDS011;46834;51.100;6.886;2023-02-15T17:23:46;10.43;;;7.22;;
60964;SDS011;46834;51.100;6.886;2023-02-15T17:26:22;8.55;;;6.18;;
60964;SDS011;46834;51.100;6.886;2023-02-15T17:29:02;10.13;;;6.75;;
60964;SDS011;46834;51.100;6.886;2023-02-15T17:31:56;13.90;;;6.70;;
60964;SDS011;46834;51.100;6.886;2023-02-15T17:34:42;9.10;;;6.43;;
60964;SDS011;46834;51.100;6.886;2023-02-15T17:37:11;13.13;;;8.02;;
60964;SDS011;46834;51.100;6.886;2023-02-15T17:40:01;11.07;;;7.38;;
60964;SDS011;46834;51.100;6.886;2023-02-15T17:42:48;14.27;;;8.13;;
60964;SDS011;46834;51.100;6.886;2023-02-15T17:45:14;13.52;;;8.65;;
60964;SDS011;46834;51.100;6.886;2023-02-15T17:47:40;14.02;;;8.60;;
60964;SDS011;46834;51.100;6.886;2023-02-15T17:50:07;14.80;;;8.80;;
60964;SDS011;46834;51.100;6.886;2023-02-15T17:52:43;15.77;;;9.73;;
60964;SDS011;46834;51.100;6.886;2023-02-15T17:55:12;16.70;;;9.98;;
60964;SDS011;46834;51.100;6.886;2023-02-15T17:58:00;16.55;;;10.40;;
60964;SDS011;46834;51.100;6.886;2023-02-15T18:00:30;15.18;;;9.65;;
60964;SDS011;46834;51.100;6.886;2023-02-15T18:03:17;19.85;;;10.73;;
60964;SDS011;46834;51.100;6.886;2023-02-15T18:06:01;17.88;;;9.55;;
60964;SDS011;46834;51.100;6.886;2023-02-15T18:08:46;11.93;;;8.40;;
60964;SDS011;46834;51.100;6.886;2023-02-15T18:11:31;12.35;;;7.88;;
60964;SDS011;46834;51.100;6.886;2023-02-15T18:14:03;13.63;;;8.35;;
60964;SDS011;46834;51.100;6.886;2023-02-15T18:16:34;11.98;;;7.18;;
60964;SDS011;46834;51.100;6.886;2023-02-15T18:19:05;13.63;;;8.07;;
60964;SDS011;46834;51.100;6.886;2023-02-15T18:21:39;13.68;;;7.35;;
60964;SDS011;46834;51.100;6.886;2023-02-15T18:24:05;13.75;;;8.70;;
60964;SDS011;46834;51.100;6.886;2023-02-15T18:26:39;12.45;;;7.75;;
60964;SDS011;46834;51.100;6.886;2023-02-15T18:29:04;10.60;;;7.15;;
60964;SDS011;46834;51.100;6.886;2023-02-15T18:31:30;11.88;;;7.35;;
60964;SDS011;46834;51.100;6.886;2023-02-15T18:33:57;11.07;;;7.18;;
60964;SDS011;46834;51.100;6.886;2023-02-15T18:36:29;11.98;;;7.50;;
60964;SDS011;46834;51.100;6.886;2023-02-15T18:39:01;11.70;;;8.52;;